createdAt,value
2023-02-15T00:02:07.466Z,3.85
2023-02-15T00:05:23.981Z,3.83
2023-02-15T00:08:40.668Z,3.82
2023-02-15T00:11:56.920Z,3.88
2023-02-15T00:15:14.795Z,3.89
2023-02-15T00:18:31.044Z,3.82
2023-02-15T00:21:48.640Z,3.82
2023-02-15T00:25:05.682Z,3.90
2023-02-15T00:28:23.712Z,3.99
2023-02-15T00:31:41.382Z,4.05
2023-02-15T00:34:57.550Z,4.04
2023-02-15T00:38:14.386Z,4.01
2023-02-15T00:41:30.646Z,3.97
2023-02-15T00:44:46.813Z,3.93
2023-02-15T00:48:03.018Z,3.89
2023-02-15T00:51:19.224Z,3.82
2023-02-15T00:54:36.336Z,3.82
2023-02-15T00:57:53.326Z,3.78
2023-02-15T01:01:19.506Z,3.82
2023-02-15T01:04:35.786Z,3.87
2023-02-15T01:07:54.409Z,3.91
2023-02-15T01:11:14.491Z,3.93
2023-02-15T01:14:30.862Z,3.97
2023-02-15T01:17:49.055Z,4.00
2023-02-15T01:21:05.302Z,4.05
2023-02-15T01:24:24.091Z,4.09
2023-02-15T01:27:40.243Z,4.12
2023-02-15T01:30:56.760Z,4.14
2023-02-15T01:34:13.136Z,4.16
2023-02-15T01:37:29.386Z,4.11
2023-02-15T01:40:45.856Z,4.10
2023-02-15T01:44:04.695Z,4.10
2023-02-15T01:47:24.676Z,4.07
2023-02-15T01:50:47.073Z,3.93
2023-02-15T01:54:07.975Z,3.85
2023-02-15T01:57:29.263Z,3.84
2023-02-15T02:00:46.480Z,3.88
2023-02-15T02:04:09.521Z,3.94
2023-02-15T02:07:29.638Z,3.92
2023-02-15T02:10:47.688Z,3.94
2023-02-15T02:14:04.971Z,3.92
2023-02-15T02:17:27.842Z,3.89
2023-02-15T02:21:35.378Z,3.87
2023-02-15T02:25:28.949Z,3.94
2023-02-15T02:29:18.638Z,3.93
2023-02-15T02:33:01.475Z,3.91
2023-02-15T02:36:28.843Z,3.93
2023-02-15T02:39:50.671Z,3.97
2023-02-15T02:43:12.687Z,3.91
2023-02-15T02:46:33.636Z,3.85
2023-02-15T02:49:52.404Z,3.87
2023-02-15T02:53:09.622Z,3.91
2023-02-15T02:56:31.166Z,3.94
2023-02-15T02:59:50.898Z,3.90
2023-02-15T03:03:13.358Z,3.75
2023-02-15T03:06:34.160Z,3.67
2023-02-15T03:09:54.800Z,3.61
2023-02-15T03:13:11.467Z,3.61
2023-02-15T03:16:32.278Z,3.48
2023-02-15T03:19:51.908Z,3.43
2023-02-15T03:23:08.771Z,3.31
2023-02-15T03:26:26.158Z,3.37
2023-02-15T03:29:43.883Z,3.43
2023-02-15T03:33:01.803Z,3.52
2023-02-15T03:36:22.829Z,3.55
2023-02-15T03:39:44.638Z,3.37
2023-02-15T03:43:06.586Z,3.47
2023-02-15T03:46:30.498Z,3.49
2023-02-15T03:49:54.094Z,3.53
2023-02-15T03:53:15.840Z,3.48
2023-02-15T03:56:32.970Z,3.51
2023-02-15T04:00:03.251Z,3.47
2023-02-15T04:03:39.575Z,3.26
2023-02-15T04:06:55.906Z,3.04
2023-02-15T04:10:28.104Z,3.00
2023-02-15T04:13:44.510Z,3.15
2023-02-15T04:17:03.345Z,3.27
2023-02-15T04:20:34.787Z,3.18
2023-02-15T04:24:04.935Z,3.26
2023-02-15T04:27:21.064Z,3.32
2023-02-15T04:30:38.709Z,3.20
2023-02-15T04:33:54.903Z,3.14
2023-02-15T04:37:11.396Z,3.26
2023-02-15T04:40:28.377Z,3.28
2023-02-15T04:43:44.578Z,3.34
2023-02-15T04:47:03.329Z,3.35
2023-02-15T04:50:20.757Z,3.35
2023-02-15T04:53:36.971Z,3.17
2023-02-15T04:56:53.234Z,3.10
2023-02-15T05:00:10.302Z,3.15
2023-02-15T05:03:26.737Z,3.18
2023-02-15T05:06:42.914Z,3.21
2023-02-15T05:10:00.231Z,3.07
2023-02-15T05:13:16.408Z,3.11
2023-02-15T05:16:33.698Z,3.08
2023-02-15T05:19:49.894Z,3.14
2023-02-15T05:23:06.324Z,3.16
2023-02-15T05:26:40.009Z,2.91
2023-02-15T05:29:56.497Z,3.00
2023-02-15T05:33:14.838Z,3.11
2023-02-15T05:36:31.080Z,3.01
2023-02-15T05:39:47.195Z,3.12
2023-02-15T05:43:04.563Z,3.13
2023-02-15T05:46:23.235Z,3.08
2023-02-15T05:49:39.716Z,2.87
2023-02-15T05:52:56.242Z,2.92
2023-02-15T05:56:19.492Z,2.86
2023-02-15T05:59:36.211Z,2.94
2023-02-15T06:02:52.338Z,3.01
2023-02-15T06:06:12.876Z,2.94
2023-02-15T06:09:29.082Z,3.02
2023-02-15T06:12:45.426Z,2.94
2023-02-15T06:16:02.165Z,2.97
2023-02-15T06:19:18.742Z,2.89
2023-02-15T06:22:34.896Z,2.98
2023-02-15T06:25:51.279Z,3.01
2023-02-15T06:29:07.470Z,2.84
2023-02-15T06:32:24.100Z,2.96
2023-02-15T06:35:42.510Z,3.01
2023-02-15T06:38:58.738Z,3.03
2023-02-15T06:42:16.544Z,2.98
2023-02-15T06:45:43.969Z,2.96
2023-02-15T06:49:02.761Z,3.03
2023-02-15T06:52:21.376Z,2.99
2023-02-15T06:55:40.343Z,3.05
2023-02-15T06:58:56.521Z,3.05
2023-02-15T07:02:17.408Z,2.82
2023-02-15T07:05:37.929Z,2.79
2023-02-15T07:08:54.168Z,2.86
2023-02-15T07:12:24.665Z,2.98
2023-02-15T07:15:41.096Z,2.91
2023-02-15T07:18:57.974Z,2.80
2023-02-15T07:22:16.429Z,2.75
2023-02-15T07:25:32.918Z,2.90
2023-02-15T07:28:50.525Z,2.96
2023-02-15T07:32:06.703Z,3.03
2023-02-15T07:35:23.267Z,3.07
2023-02-15T07:38:44.945Z,2.88
2023-02-15T07:42:03.494Z,3.05
2023-02-15T07:45:25.505Z,2.84
2023-02-15T07:48:42.732Z,2.71
2023-02-15T07:51:59.318Z,2.96
2023-02-15T07:55:16.308Z,3.07
2023-02-15T07:58:43.892Z,2.95
2023-02-15T08:02:01.038Z,3.03
2023-02-15T08:05:19.982Z,3.18
2023-02-15T08:08:37.285Z,3.29
2023-02-15T08:11:55.638Z,3.27
2023-02-15T08:15:12.867Z,3.12
2023-02-15T08:18:28.983Z,3.31
2023-02-15T08:21:48.018Z,3.44
2023-02-15T08:25:04.569Z,3.57
2023-02-15T08:28:21.307Z,3.63
2023-02-15T08:31:42.232Z,3.42
2023-02-15T08:34:59.061Z,3.48
2023-02-15T08:38:15.393Z,3.72
2023-02-15T08:41:36.027Z,3.68
2023-02-15T08:44:53.466Z,3.84
2023-02-15T08:48:09.996Z,4.66
2023-02-15T08:51:30.486Z,5.09
2023-02-15T08:54:51.520Z,5.32
2023-02-15T08:58:17.022Z,5.57
2023-02-15T09:01:37.247Z,5.76
2023-02-15T09:04:54.597Z,5.97
2023-02-15T09:08:13.921Z,6.18
2023-02-15T09:11:33.409Z,6.20
2023-02-15T09:14:51.430Z,5.59
2023-02-15T09:18:07.863Z,6.11
2023-02-15T09:21:27.374Z,6.37
2023-02-15T09:24:46.431Z,6.26
2023-02-15T09:28:06.317Z,6.39
2023-02-15T09:31:25.947Z,6.58
2023-02-15T09:34:42.628Z,6.26
2023-02-15T09:38:01.087Z,6.51
2023-02-15T09:41:47.277Z,6.52
2023-02-15T09:45:35.513Z,6.57
2023-02-15T09:48:54.279Z,6.59
2023-02-15T09:52:44.102Z,6.68
2023-02-15T09:56:06.879Z,6.71
2023-02-15T09:59:31.661Z,6.82
2023-02-15T10:03:13.752Z,6.84
2023-02-15T10:06:49.677Z,6.88
2023-02-15T10:10:20.507Z,6.90
2023-02-15T10:13:43.726Z,7.07
2023-02-15T10:17:08.508Z,7.26
2023-02-15T10:20:33.471Z,7.01
2023-02-15T10:24:09.963Z,6.99
2023-02-15T10:27:29.053Z,7.14
2023-02-15T10:30:53.580Z,7.49
2023-02-15T10:34:26.798Z,7.68
2023-02-15T10:38:13.899Z,7.89
2023-02-15T10:41:42.997Z,7.91
2023-02-15T10:45:13.244Z,7.41
2023-02-15T10:48:54.862Z,7.90
2023-02-15T10:52:34.378Z,8.07
2023-02-15T10:56:01.473Z,8.26
2023-02-15T10:59:41.691Z,8.33
2023-02-15T11:03:22.380Z,8.50
2023-02-15T11:06:43.296Z,8.02
2023-02-15T11:10:05.549Z,8.52
2023-02-15T11:13:26.603Z,8.52
2023-02-15T11:16:47.514Z,8.82
2023-02-15T11:20:11.902Z,8.81
2023-02-15T11:23:29.626Z,8.46
2023-02-15T11:26:50.219Z,8.78
2023-02-15T11:30:13.490Z,8.81
2023-02-15T11:33:34.122Z,9.01
2023-02-15T11:36:52.502Z,9.08
2023-02-15T11:40:15.990Z,8.86
2023-02-15T11:43:36.740Z,9.12
2023-02-15T11:47:11.421Z,9.21
2023-02-15T11:50:38.756Z,9.21
2023-02-15T11:53:57.199Z,8.94
2023-02-15T11:57:22.362Z,9.13
2023-02-15T12:00:44.639Z,9.29
2023-02-15T12:04:04.677Z,9.32
2023-02-15T12:07:29.379Z,9.36
2023-02-15T12:10:51.806Z,9.39
2023-02-15T12:14:11.850Z,9.25
2023-02-15T12:17:34.605Z,9.06
2023-02-15T12:20:52.013Z,8.99
2023-02-15T12:24:19.087Z,8.89
2023-02-15T12:27:40.062Z,8.83
2023-02-15T12:31:01.751Z,8.76
2023-02-15T12:34:26.565Z,8.67
2023-02-15T12:37:42.883Z,8.60
2023-02-15T12:41:08.542Z,8.54
2023-02-15T12:44:30.827Z,8.49
2023-02-15T12:47:47.496Z,8.36
2023-02-15T12:51:14.331Z,8.34
2023-02-15T12:54:50.274Z,8.31
2023-02-15T12:58:27.085Z,8.32
2023-02-15T13:01:47.804Z,8.29
2023-02-15T13:05:09.137Z,8.30
2023-02-15T13:08:34.593Z,8.30
2023-02-15T13:11:58.009Z,8.30
2023-02-15T13:15:36.964Z,8.28
2023-02-15T13:18:59.902Z,8.28
2023-02-15T13:22:23.549Z,8.28
2023-02-15T13:25:45.914Z,8.25
2023-02-15T13:29:11.163Z,8.25
2023-02-15T13:32:38.044Z,8.29
2023-02-15T13:36:10.545Z,8.32
2023-02-15T13:39:41.362Z,8.18
2023-02-15T13:43:31.865Z,8.23
2023-02-15T13:47:18.619Z,8.24
2023-02-15T13:50:59.686Z,8.26
2023-02-15T13:54:47.168Z,8.27
2023-02-15T13:58:40.279Z,8.21
2023-02-15T14:02:10.084Z,8.22
2023-02-15T14:06:02.312Z,8.18
2023-02-15T14:09:27.370Z,8.19
2023-02-15T14:12:58.852Z,8.15
2023-02-15T14:16:18.109Z,8.13
2023-02-15T14:19:37.784Z,8.13
2023-02-15T14:22:54.908Z,8.10
2023-02-15T14:26:32.425Z,8.08
2023-02-15T14:29:59.935Z,8.06
2023-02-15T14:33:18.866Z,8.05
2023-02-15T14:36:34.886Z,8.06
2023-02-15T14:40:07.876Z,8.04
2023-02-15T14:43:25.427Z,8.04
2023-02-15T14:46:43.450Z,8.01
2023-02-15T14:49:59.152Z,8.02
2023-02-15T14:53:44.599Z,7.99
2023-02-15T14:57:13.604Z,7.92
2023-02-15T15:00:52.916Z,7.88
2023-02-15T15:04:10.366Z,7.87
2023-02-15T15:07:27.464Z,7.87
2023-02-15T15:10:48.453Z,7.88
2023-02-15T15:14:04.344Z,7.84
2023-02-15T15:17:22.823Z,7.80
2023-02-15T15:20:55.020Z,7.78
2023-02-15T15:24:08.877Z,7.73
2023-02-15T15:27:57.335Z,7.68
2023-02-15T15:31:15.078Z,7.63
2023-02-15T15:34:50.494Z,7.54
2023-02-15T15:38:23.939Z,7.51
2023-02-15T15:41:48.237Z,7.42
2023-02-15T15:45:25.409Z,7.39
2023-02-15T15:48:40.796Z,7.34
2023-02-15T15:51:55.423Z,7.28
2023-02-15T15:55:18.117Z,7.21
2023-02-15T15:58:40.120Z,7.17
2023-02-15T16:01:55.090Z,7.10
2023-02-15T16:05:18.727Z,7.09
2023-02-15T16:08:41.570Z,7.07
2023-02-15T16:12:02.909Z,7.01
2023-02-15T16:15:26.740Z,6.96
2023-02-15T16:18:49.355Z,6.93
2023-02-15T16:22:11.469Z,6.89
2023-02-15T16:25:39.068Z,6.84
2023-02-15T16:28:58.350Z,6.78
2023-02-15T16:32:21.725Z,6.75
2023-02-15T16:35:36.059Z,6.73
2023-02-15T16:39:14.596Z,6.69
2023-02-15T16:42:36.670Z,6.62
2023-02-15T16:45:55.155Z,6.59
2023-02-15T16:49:11.085Z,6.56
2023-02-15T16:52:30.360Z,6.52
2023-02-15T16:55:50.963Z,6.51
2023-02-15T16:59:07.904Z,6.43
2023-02-15T17:02:49.245Z,6.38
2023-02-15T17:05:54.493Z,6.34
2023-02-15T17:09:26.160Z,6.28
2023-02-15T17:13:03.040Z,6.23
2023-02-15T17:16:35.573Z,6.20
2023-02-15T17:20:00.604Z,6.14
2023-02-15T17:23:20.588Z,5.75
2023-02-15T17:26:36.855Z,5.42
2023-02-15T17:29:54.667Z,5.35
2023-02-15T17:33:12.825Z,5.41
2023-02-15T17:36:30.810Z,5.39
2023-02-15T17:39:56.807Z,5.34
2023-02-15T17:43:12.829Z,5.29
2023-02-15T17:46:27.783Z,5.15
2023-02-15T17:49:47.988Z,4.65
2023-02-15T17:53:15.135Z,4.84
2023-02-15T17:56:32.053Z,4.68
2023-02-15T18:00:06.088Z,4.69
2023-02-15T18:03:38.387Z,4.47
2023-02-15T18:07:08.003Z,4.09
2023-02-15T18:10:37.856Z,3.83
2023-02-15T18:13:56.441Z,3.84
2023-02-15T18:17:14.823Z,3.98
2023-02-15T18:20:36.883Z,4.03
2023-02-15T18:23:58.655Z,4.04
2023-02-15T18:27:15.329Z,3.93
2023-02-15T18:30:31.085Z,3.75
2023-02-15T18:37:29.935Z,3.57
2023-02-15T18:40:46.527Z,3.55
2023-02-15T18:44:05.350Z,3.23
2023-02-15T18:47:26.731Z,3.02
2023-02-15T18:50:44.502Z,2.95
2023-02-15T18:54:03.946Z,2.88
2023-02-15T18:57:28.901Z,2.74
2023-02-15T19:00:48.839Z,2.68
2023-02-15T19:04:03.943Z,2.64
2023-02-15T19:07:26.844Z,2.46
2023-02-15T19:10:41.277Z,2.35
2023-02-15T19:13:55.731Z,2.33
2023-02-15T19:17:10.572Z,2.22
2023-02-15T19:20:40.515Z,2.06
2023-02-15T19:23:57.561Z,2.19
2023-02-15T19:27:18.204Z,2.18
2023-02-15T19:30:47.335Z,2.10
2023-02-15T19:34:03.996Z,1.99
2023-02-15T19:37:26.134Z,1.78
2023-02-15T19:40:43.666Z,1.75
2023-02-15T19:43:59.433Z,1.69
2023-02-15T19:47:16.039Z,1.56
2023-02-15T19:50:32.044Z,1.56
2023-02-15T19:53:50.667Z,1.57
2023-02-15T19:57:04.699Z,1.54
2023-02-15T20:00:27.851Z,1.43
2023-02-15T20:03:42.652Z,1.40
2023-02-15T20:06:58.210Z,1.30
2023-02-15T20:10:20.824Z,1.27
2023-02-15T20:13:42.811Z,1.24
2023-02-15T20:16:57.755Z,1.28
2023-02-15T20:20:24.363Z,1.27
2023-02-15T20:24:14.357Z,1.09
2023-02-15T20:27:28.577Z,1.09
2023-02-15T20:30:47.063Z,1.15
2023-02-15T20:34:01.608Z,1.18
2023-02-15T20:37:22.059Z,1.10
2023-02-15T20:40:37.984Z,1.19
2023-02-15T20:43:51.941Z,1.14
2023-02-15T20:47:07.886Z,1.10
2023-02-15T20:53:22.003Z,1.03
2023-02-15T20:56:35.620Z,1.01
2023-02-15T20:59:52.373Z,0.93
2023-02-15T21:03:07.743Z,0.87
2023-02-15T21:06:23.437Z,0.86
2023-02-15T21:09:37.385Z,0.78
2023-02-15T21:12:53.451Z,0.67
2023-02-15T21:16:08.040Z,0.63
2023-02-15T21:19:24.126Z,0.66
2023-02-15T21:22:37.833Z,0.52
2023-02-15T21:25:52.910Z,0.69
2023-02-15T21:29:07.236Z,0.86
2023-02-15T21:32:20.972Z,0.91
2023-02-15T21:35:46.810Z,0.89
2023-02-15T21:39:01.120Z,0.84
2023-02-15T21:42:32.249Z,0.80
2023-02-15T21:46:00.163Z,0.87
2023-02-15T21:49:13.744Z,0.92
2023-02-15T21:52:29.387Z,0.80
2023-02-15T21:55:43.071Z,0.53
2023-02-15T21:58:57.983Z,0.43
2023-02-15T22:02:26.451Z,0.53
2023-02-15T22:05:41.235Z,0.68
2023-02-15T22:08:54.876Z,0.64
2023-02-15T22:12:08.492Z,0.71
2023-02-15T22:15:29.896Z,0.68
2023-02-15T22:18:46.469Z,0.69
2023-02-15T22:22:00.101Z,0.74
2023-02-15T22:25:15.322Z,0.73
2023-02-15T22:28:32.512Z,0.73
2023-02-15T22:31:46.711Z,0.74
2023-02-15T22:35:00.969Z,0.70
2023-02-15T22:38:14.713Z,0.68
2023-02-15T22:41:32.088Z,0.70
2023-02-15T22:44:45.764Z,0.73
2023-02-15T22:48:02.079Z,0.70
2023-02-15T22:51:25.256Z,0.72
2023-02-15T22:54:39.212Z,0.68
2023-02-15T22:57:55.859Z,0.76
2023-02-15T23:01:10.050Z,0.91
2023-02-15T23:04:28.579Z,0.98
2023-02-15T23:07:42.336Z,1.03
2023-02-15T23:10:59.270Z,1.05
2023-02-15T23:14:15.664Z,1.15
2023-02-15T23:17:29.611Z,1.28
2023-02-15T23:20:43.168Z,1.35
2023-02-15T23:23:58.761Z,1.34
2023-02-15T23:27:22.715Z,1.34
2023-02-15T23:30:36.388Z,1.26
2023-02-15T23:33:50.504Z,1.29
2023-02-15T23:37:04.404Z,1.28
2023-02-15T23:40:36.138Z,1.26
2023-02-15T23:43:52.167Z,1.25
2023-02-15T23:47:05.704Z,1.25
2023-02-15T23:50:25.324Z,1.31
2023-02-15T23:53:39.994Z,1.36
2023-02-15T23:56:58.616Z,1.39
